sensor_id;sensor_type;location;lat;lon;timestamp;P1;durP1;ratioP1;P2;durP2;ratioP2
20705;SDS011;10514;49.468;11.044;2023-02-28T00:01:33;4.17;;;2.13;;
20705;SDS011;10514;49.468;11.044;2023-02-28T00:03:59;4.73;;;2.13;;
20705;SDS011;10514;49.468;11.044;2023-02-28T00:06:25;2.53;;;1.70;;
20705;SDS011;10514;49.468;11.044;2023-02-28T00:08:52;3.27;;;2.27;;
20705;SDS011;10514;49.468;11.044;2023-02-28T00:11:17;8.10;;;2.20;;
20705;SDS011;10514;49.468;11.044;2023-02-28T00:13:44;1.97;;;1.57;;
20705;SDS011;10514;49.468;11.044;2023-02-28T00:16:17;5.90;;;2.43;;
20705;SDS011;10514;49.468;11.044;2023-02-28T00:18:43;3.63;;;2.37;;
20705;SDS011;10514;49.468;11.044;2023-02-28T00:21:09;4.37;;;1.83;;
20705;SDS011;10514;49.468;11.044;2023-02-28T00:23:35;5.70;;;2.47;;
20705;SDS011;10514;49.468;11.044;2023-02-28T00:26:01;3.27;;;2.00;;
20705;SDS011;10514;49.468;11.044;2023-02-28T00:28:27;3.30;;;2.00;;
20705;SDS011;10514;49.468;11.044;2023-02-28T00:30:53;3.83;;;2.40;;
20705;SDS011;10514;49.468;11.044;2023-02-28T00:33:19;4.70;;;2.70;;
20705;SDS011;10514;49.468;11.044;2023-02-28T00:35:45;4.00;;;2.10;;
20705;SDS011;10514;49.468;11.044;2023-02-28T00:38:12;4.87;;;2.33;;
20705;SDS011;10514;49.468;11.044;2023-02-28T00:40:38;3.53;;;2.23;;
20705;SDS011;10514;49.468;11.044;2023-02-28T00:43:04;4.20;;;3.00;;
20705;SDS011;10514;49.468;11.044;2023-02-28T00:45:30;5.60;;;2.73;;
20705;SDS011;10514;49.468;11.044;2023-02-28T00:47:56;4.97;;;2.37;;
20705;SDS011;10514;49.468;11.044;2023-02-28T00:50:22;3.40;;;2.40;;
20705;SDS011;10514;49.468;11.044;2023-02-28T00:52:48;5.00;;;2.33;;
20705;SDS011;10514;49.468;11.044;2023-02-28T00:55:14;4.27;;;2.60;;
20705;SDS011;10514;49.468;11.044;2023-02-28T00:57:40;3.53;;;2.50;;
20705;SDS011;10514;49.468;11.044;2023-02-28T01:00:06;3.47;;;2.13;;
20705;SDS011;10514;49.468;11.044;2023-02-28T01:02:33;3.37;;;2.50;;
20705;SDS011;10514;49.468;11.044;2023-02-28T01:04:59;5.83;;;2.83;;
20705;SDS011;10514;49.468;11.044;2023-02-28T01:07:25;4.23;;;2.40;;
20705;SDS011;10514;49.468;11.044;2023-02-28T01:09:51;4.97;;;2.20;;
20705;SDS011;10514;49.468;11.044;2023-02-28T01:12:16;2.80;;;2.30;;
20705;SDS011;10514;49.468;11.044;2023-02-28T01:14:42;5.73;;;2.07;;
20705;SDS011;10514;49.468;11.044;2023-02-28T01:17:08;3.23;;;2.13;;
20705;SDS011;10514;49.468;11.044;2023-02-28T01:19:34;5.67;;;2.70;;
20705;SDS011;10514;49.468;11.044;2023-02-28T01:22:04;6.10;;;3.00;;
20705;SDS011;10514;49.468;11.044;2023-02-28T01:24:30;2.83;;;2.30;;
20705;SDS011;10514;49.468;11.044;2023-02-28T01:26:56;3.43;;;2.57;;
20705;SDS011;10514;49.468;11.044;2023-02-28T01:29:22;4.23;;;2.43;;
20705;SDS011;10514;49.468;11.044;2023-02-28T01:31:48;5.00;;;2.13;;
20705;SDS011;10514;49.468;11.044;2023-02-28T01:34:14;5.73;;;2.77;;
20705;SDS011;10514;49.468;11.044;2023-02-28T01:36:40;3.57;;;2.53;;
20705;SDS011;10514;49.468;11.044;2023-02-28T01:39:06;5.50;;;2.00;;
20705;SDS011;10514;49.468;11.044;2023-02-28T01:41:33;2.80;;;2.03;;
20705;SDS011;10514;49.468;11.044;2023-02-28T01:44:04;4.57;;;2.50;;
20705;SDS011;10514;49.468;11.044;2023-02-28T01:46:30;4.60;;;3.20;;
20705;SDS011;10514;49.468;11.044;2023-02-28T01:49:00;3.30;;;2.17;;
20705;SDS011;10514;49.468;11.044;2023-02-28T01:51:44;6.43;;;2.60;;
20705;SDS011;10514;49.468;11.044;2023-02-28T01:54:16;3.50;;;2.57;;
20705;SDS011;10514;49.468;11.044;2023-02-28T01:56:45;4.77;;;2.43;;
20705;SDS011;10514;49.468;11.044;2023-02-28T01:59:20;3.90;;;2.40;;
20705;SDS011;10514;49.468;11.044;2023-02-28T02:01:51;3.57;;;2.57;;
20705;SDS011;10514;49.468;11.044;2023-02-28T02:04:18;6.70;;;2.73;;
20705;SDS011;10514;49.468;11.044;2023-02-28T02:06:45;4.63;;;2.67;;
20705;SDS011;10514;49.468;11.044;2023-02-28T02:09:13;3.20;;;2.20;;
20705;SDS011;10514;49.468;11.044;2023-02-28T02:11:39;4.47;;;3.30;;
20705;SDS011;10514;49.468;11.044;2023-02-28T02:14:17;3.77;;;2.70;;
20705;SDS011;10514;49.468;11.044;2023-02-28T02:21:59;4.30;;;2.70;;
20705;SDS011;10514;49.468;11.044;2023-02-28T02:24:33;3.43;;;2.80;;
20705;SDS011;10514;49.468;11.044;2023-02-28T02:27:10;5.83;;;2.87;;
20705;SDS011;10514;49.468;11.044;2023-02-28T02:35:00;6.90;;;2.70;;
20705;SDS011;10514;49.468;11.044;2023-02-28T02:40:53;3.63;;;2.93;;
20705;SDS011;10514;49.468;11.044;2023-02-28T02:43:40;4.87;;;2.67;;
20705;SDS011;10514;49.468;11.044;2023-02-28T02:46:12;6.80;;;2.77;;
20705;SDS011;10514;49.468;11.044;2023-02-28T02:48:40;3.80;;;2.57;;
20705;SDS011;10514;49.468;11.044;2023-02-28T02:51:09;4.60;;;3.23;;
20705;SDS011;10514;49.468;11.044;2023-02-28T02:53:38;5.87;;;3.10;;
20705;SDS011;10514;49.468;11.044;2023-02-28T02:56:07;5.00;;;2.80;;
20705;SDS011;10514;49.468;11.044;2023-02-28T02:58:35;5.03;;;2.67;;
20705;SDS011;10514;49.468;11.044;2023-02-28T03:01:07;3.97;;;3.23;;
20705;SDS011;10514;49.468;11.044;2023-02-28T03:03:34;5.23;;;2.80;;
20705;SDS011;10514;49.468;11.044;2023-02-28T03:06:00;4.40;;;2.67;;
20705;SDS011;10514;49.468;11.044;2023-02-28T03:08:28;5.47;;;2.97;;
20705;SDS011;10514;49.468;11.044;2023-02-28T03:11:02;4.93;;;3.10;;
20705;SDS011;10514;49.468;11.044;2023-02-28T03:13:42;7.17;;;3.40;;
20705;SDS011;10514;49.468;11.044;2023-02-28T03:18:41;4.97;;;2.90;;
20705;SDS011;10514;49.468;11.044;2023-02-28T03:21:33;4.10;;;2.40;;
20705;SDS011;10514;49.468;11.044;2023-02-28T03:24:08;5.03;;;2.80;;
20705;SDS011;10514;49.468;11.044;2023-02-28T03:26:51;4.77;;;3.40;;
20705;SDS011;10514;49.468;11.044;2023-02-28T03:29:28;6.57;;;3.47;;
20705;SDS011;10514;49.468;11.044;2023-02-28T03:32:03;4.73;;;2.67;;
20705;SDS011;10514;49.468;11.044;2023-02-28T03:34:37;4.87;;;2.87;;
20705;SDS011;10514;49.468;11.044;2023-02-28T03:37:06;4.27;;;2.40;;
20705;SDS011;10514;49.468;11.044;2023-02-28T03:39:39;4.37;;;3.07;;
20705;SDS011;10514;49.468;11.044;2023-02-28T03:42:14;8.33;;;3.30;;
20705;SDS011;10514;49.468;11.044;2023-02-28T03:44:45;6.23;;;4.00;;
20705;SDS011;10514;49.468;11.044;2023-02-28T03:52:10;3.97;;;2.90;;
20705;SDS011;10514;49.468;11.044;2023-02-28T03:54:42;10.23;;;3.60;;
20705;SDS011;10514;49.468;11.044;2023-02-28T03:57:25;5.93;;;3.80;;
20705;SDS011;10514;49.468;11.044;2023-02-28T03:59:56;4.80;;;3.93;;
20705;SDS011;10514;49.468;11.044;2023-02-28T04:02:23;4.83;;;3.60;;
20705;SDS011;10514;49.468;11.044;2023-02-28T04:04:49;5.67;;;3.80;;
20705;SDS011;10514;49.468;11.044;2023-02-28T04:07:16;5.23;;;3.70;;
20705;SDS011;10514;49.468;11.044;2023-02-28T04:09:42;10.33;;;3.70;;
20705;SDS011;10514;49.468;11.044;2023-02-28T04:12:08;5.57;;;3.47;;
20705;SDS011;10514;49.468;11.044;2023-02-28T04:14:34;6.60;;;4.53;;
20705;SDS011;10514;49.468;11.044;2023-02-28T04:17:00;7.80;;;3.40;;
20705;SDS011;10514;49.468;11.044;2023-02-28T04:19:26;5.73;;;3.67;;
20705;SDS011;10514;49.468;11.044;2023-02-28T04:21:52;6.07;;;3.67;;
20705;SDS011;10514;49.468;11.044;2023-02-28T04:24:23;5.90;;;3.37;;
20705;SDS011;10514;49.468;11.044;2023-02-28T04:26:50;7.47;;;4.33;;
20705;SDS011;10514;49.468;11.044;2023-02-28T04:29:20;5.47;;;4.10;;
20705;SDS011;10514;49.468;11.044;2023-02-28T04:31:47;6.47;;;4.07;;
20705;SDS011;10514;49.468;11.044;2023-02-28T04:34:13;6.17;;;4.33;;
20705;SDS011;10514;49.468;11.044;2023-02-28T04:36:39;7.23;;;4.30;;
20705;SDS011;10514;49.468;11.044;2023-02-28T04:39:05;5.57;;;4.10;;
20705;SDS011;10514;49.468;11.044;2023-02-28T04:41:31;4.83;;;3.73;;
20705;SDS011;10514;49.468;11.044;2023-02-28T04:43:57;5.67;;;4.00;;
20705;SDS011;10514;49.468;11.044;2023-02-28T04:46:23;6.50;;;3.83;;
20705;SDS011;10514;49.468;11.044;2023-02-28T04:48:49;7.83;;;3.60;;
20705;SDS011;10514;49.468;11.044;2023-02-28T04:51:16;7.70;;;4.10;;
20705;SDS011;10514;49.468;11.044;2023-02-28T04:53:42;5.03;;;3.90;;
20705;SDS011;10514;49.468;11.044;2023-02-28T04:56:10;7.60;;;4.23;;
20705;SDS011;10514;49.468;11.044;2023-02-28T04:58:36;6.90;;;4.20;;
20705;SDS011;10514;49.468;11.044;2023-02-28T05:01:45;7.17;;;4.70;;
20705;SDS011;10514;49.468;11.044;2023-02-28T05:03:53;6.43;;;3.50;;
20705;SDS011;10514;49.468;11.044;2023-02-28T05:06:20;6.13;;;4.37;;
20705;SDS011;10514;49.468;11.044;2023-02-28T05:08:47;9.30;;;4.57;;
20705;SDS011;10514;49.468;11.044;2023-02-28T05:11:14;5.77;;;4.10;;
20705;SDS011;10514;49.468;11.044;2023-02-28T05:13:40;10.07;;;4.70;;
20705;SDS011;10514;49.468;11.044;2023-02-28T05:16:06;8.20;;;4.30;;
20705;SDS011;10514;49.468;11.044;2023-02-28T05:18:32;6.00;;;3.63;;
20705;SDS011;10514;49.468;11.044;2023-02-28T05:20:59;6.40;;;3.53;;
20705;SDS011;10514;49.468;11.044;2023-02-28T05:23:27;5.80;;;4.27;;
20705;SDS011;10514;49.468;11.044;2023-02-28T05:25:53;5.63;;;4.23;;
20705;SDS011;10514;49.468;11.044;2023-02-28T05:28:19;8.40;;;4.53;;
20705;SDS011;10514;49.468;11.044;2023-02-28T05:30:45;10.93;;;4.70;;
20705;SDS011;10514;49.468;11.044;2023-02-28T05:33:11;5.93;;;4.20;;
20705;SDS011;10514;49.468;11.044;2023-02-28T05:35:38;5.60;;;3.87;;
20705;SDS011;10514;49.468;11.044;2023-02-28T05:38:05;7.13;;;4.17;;
20705;SDS011;10514;49.468;11.044;2023-02-28T05:40:31;8.70;;;4.13;;
20705;SDS011;10514;49.468;11.044;2023-02-28T05:42:56;7.93;;;3.87;;
20705;SDS011;10514;49.468;11.044;2023-02-28T05:45:23;5.20;;;3.83;;
20705;SDS011;10514;49.468;11.044;2023-02-28T05:47:49;8.87;;;3.97;;
20705;SDS011;10514;49.468;11.044;2023-02-28T05:50:18;7.77;;;3.93;;
20705;SDS011;10514;49.468;11.044;2023-02-28T05:52:48;9.20;;;3.57;;
20705;SDS011;10514;49.468;11.044;2023-02-28T05:55:14;5.33;;;3.37;;
20705;SDS011;10514;49.468;11.044;2023-02-28T05:57:40;5.80;;;4.03;;
20705;SDS011;10514;49.468;11.044;2023-02-28T06:00:07;7.40;;;4.13;;
20705;SDS011;10514;49.468;11.044;2023-02-28T06:02:33;7.03;;;3.87;;
20705;SDS011;10514;49.468;11.044;2023-02-28T06:04:59;7.23;;;3.90;;
20705;SDS011;10514;49.468;11.044;2023-02-28T06:07:25;8.40;;;3.97;;
20705;SDS011;10514;49.468;11.044;2023-02-28T06:09:51;8.00;;;4.67;;
20705;SDS011;10514;49.468;11.044;2023-02-28T06:12:17;5.43;;;4.07;;
20705;SDS011;10514;49.468;11.044;2023-02-28T06:14:43;11.60;;;4.47;;
20705;SDS011;10514;49.468;11.044;2023-02-28T06:17:09;8.23;;;4.43;;
20705;SDS011;10514;49.468;11.044;2023-02-28T06:19:36;5.67;;;4.20;;
20705;SDS011;10514;49.468;11.044;2023-02-28T06:22:03;5.80;;;4.43;;
20705;SDS011;10514;49.468;11.044;2023-02-28T06:24:29;8.57;;;4.77;;
20705;SDS011;10514;49.468;11.044;2023-02-28T06:26:56;7.73;;;4.73;;
20705;SDS011;10514;49.468;11.044;2023-02-28T06:29:29;10.30;;;5.30;;
20705;SDS011;10514;49.468;11.044;2023-02-28T06:31:55;11.60;;;5.03;;
20705;SDS011;10514;49.468;11.044;2023-02-28T06:34:21;8.93;;;5.53;;
20705;SDS011;10514;49.468;11.044;2023-02-28T06:36:50;8.87;;;4.53;;
20705;SDS011;10514;49.468;11.044;2023-02-28T06:39:17;9.07;;;4.83;;
20705;SDS011;10514;49.468;11.044;2023-02-28T06:41:43;10.70;;;5.63;;
20705;SDS011;10514;49.468;11.044;2023-02-28T06:44:14;7.90;;;4.70;;
20705;SDS011;10514;49.468;11.044;2023-02-28T06:46:41;7.07;;;4.90;;
20705;SDS011;10514;49.468;11.044;2023-02-28T06:49:07;9.23;;;5.30;;
20705;SDS011;10514;49.468;11.044;2023-02-28T06:51:37;7.77;;;5.13;;
20705;SDS011;10514;49.468;11.044;2023-02-28T06:54:04;9.07;;;5.17;;
20705;SDS011;10514;49.468;11.044;2023-02-28T06:56:30;6.47;;;3.97;;
20705;SDS011;10514;49.468;11.044;2023-02-28T06:58:56;7.40;;;4.63;;
20705;SDS011;10514;49.468;11.044;2023-02-28T07:01:22;7.00;;;4.97;;
20705;SDS011;10514;49.468;11.044;2023-02-28T07:03:49;10.23;;;5.30;;
20705;SDS011;10514;49.468;11.044;2023-02-28T07:06:17;8.73;;;4.70;;
20705;SDS011;10514;49.468;11.044;2023-02-28T07:08:44;9.77;;;4.97;;
20705;SDS011;10514;49.468;11.044;2023-02-28T07:11:10;6.63;;;4.50;;
20705;SDS011;10514;49.468;11.044;2023-02-28T07:13:36;8.47;;;4.53;;
20705;SDS011;10514;49.468;11.044;2023-02-28T07:16:03;8.13;;;4.90;;
20705;SDS011;10514;49.468;11.044;2023-02-28T07:18:29;7.87;;;4.50;;
20705;SDS011;10514;49.468;11.044;2023-02-28T07:20:55;9.83;;;4.40;;
20705;SDS011;10514;49.468;11.044;2023-02-28T07:23:21;9.87;;;5.43;;
20705;SDS011;10514;49.468;11.044;2023-02-28T07:25:48;7.90;;;5.13;;
20705;SDS011;10514;49.468;11.044;2023-02-28T07:28:15;9.53;;;4.93;;
20705;SDS011;10514;49.468;11.044;2023-02-28T07:30:41;9.70;;;5.80;;
20705;SDS011;10514;49.468;11.044;2023-02-28T07:33:07;8.57;;;4.77;;
20705;SDS011;10514;49.468;11.044;2023-02-28T07:35:33;9.83;;;5.03;;
20705;SDS011;10514;49.468;11.044;2023-02-28T07:37:59;7.67;;;5.37;;
20705;SDS011;10514;49.468;11.044;2023-02-28T07:40:25;9.90;;;5.87;;
20705;SDS011;10514;49.468;11.044;2023-02-28T07:42:51;10.37;;;4.83;;
20705;SDS011;10514;49.468;11.044;2023-02-28T07:45:17;8.10;;;5.10;;
20705;SDS011;10514;49.468;11.044;2023-02-28T07:47:43;7.80;;;5.00;;
20705;SDS011;10514;49.468;11.044;2023-02-28T07:50:10;9.47;;;5.23;;
20705;SDS011;10514;49.468;11.044;2023-02-28T07:52:38;12.90;;;5.03;;
20705;SDS011;10514;49.468;11.044;2023-02-28T07:55:04;7.60;;;4.93;;
20705;SDS011;10514;49.468;11.044;2023-02-28T07:57:30;8.50;;;5.20;;
20705;SDS011;10514;49.468;11.044;2023-02-28T07:59:56;9.33;;;4.47;;
20705;SDS011;10514;49.468;11.044;2023-02-28T08:02:23;6.97;;;4.97;;
20705;SDS011;10514;49.468;11.044;2023-02-28T08:04:49;7.67;;;4.50;;
20705;SDS011;10514;49.468;11.044;2023-02-28T08:07:15;9.83;;;5.27;;
20705;SDS011;10514;49.468;11.044;2023-02-28T08:09:42;8.80;;;4.97;;
20705;SDS011;10514;49.468;11.044;2023-02-28T08:12:08;9.00;;;5.03;;
20705;SDS011;10514;49.468;11.044;2023-02-28T08:14:35;8.70;;;4.90;;
20705;SDS011;10514;49.468;11.044;2023-02-28T08:17:01;9.57;;;5.73;;
20705;SDS011;10514;49.468;11.044;2023-02-28T08:19:27;14.57;;;5.30;;
20705;SDS011;10514;49.468;11.044;2023-02-28T08:21:53;8.90;;;5.60;;
20705;SDS011;10514;49.468;11.044;2023-02-28T08:24:19;9.63;;;5.07;;
20705;SDS011;10514;49.468;11.044;2023-02-28T08:26:45;7.77;;;5.03;;
20705;SDS011;10514;49.468;11.044;2023-02-28T08:29:11;7.00;;;4.93;;
20705;SDS011;10514;49.468;11.044;2023-02-28T08:31:37;8.57;;;5.13;;
20705;SDS011;10514;49.468;11.044;2023-02-28T08:34:07;9.03;;;4.73;;
20705;SDS011;10514;49.468;11.044;2023-02-28T08:36:33;7.33;;;4.70;;
20705;SDS011;10514;49.468;11.044;2023-02-28T08:39:00;9.10;;;5.37;;
20705;SDS011;10514;49.468;11.044;2023-02-28T08:41:26;9.03;;;5.23;;
20705;SDS011;10514;49.468;11.044;2023-02-28T08:43:52;10.60;;;5.17;;
20705;SDS011;10514;49.468;11.044;2023-02-28T08:46:18;7.83;;;5.50;;
20705;SDS011;10514;49.468;11.044;2023-02-28T08:48:44;13.03;;;5.60;;
20705;SDS011;10514;49.468;11.044;2023-02-28T08:51:12;10.07;;;5.83;;
20705;SDS011;10514;49.468;11.044;2023-02-28T08:53:39;9.30;;;5.20;;
20705;SDS011;10514;49.468;11.044;2023-02-28T08:56:06;7.57;;;5.43;;
20705;SDS011;10514;49.468;11.044;2023-02-28T08:58:32;8.73;;;5.67;;
20705;SDS011;10514;49.468;11.044;2023-02-28T09:00:59;9.37;;;4.87;;
20705;SDS011;10514;49.468;11.044;2023-02-28T09:03:25;9.30;;;5.90;;
20705;SDS011;10514;49.468;11.044;2023-02-28T09:05:53;9.43;;;5.60;;
20705;SDS011;10514;49.468;11.044;2023-02-28T09:08:19;14.23;;;6.23;;
20705;SDS011;10514;49.468;11.044;2023-02-28T09:10:45;10.60;;;6.03;;
20705;SDS011;10514;49.468;11.044;2023-02-28T09:13:11;10.20;;;5.70;;
20705;SDS011;10514;49.468;11.044;2023-02-28T09:15:37;8.47;;;5.70;;
20705;SDS011;10514;49.468;11.044;2023-02-28T09:18:03;14.63;;;6.83;;
20705;SDS011;10514;49.468;11.044;2023-02-28T09:20:29;8.97;;;5.53;;
20705;SDS011;10514;49.468;11.044;2023-02-28T09:22:55;13.10;;;6.17;;
20705;SDS011;10514;49.468;11.044;2023-02-28T09:25:21;8.67;;;5.87;;
20705;SDS011;10514;49.468;11.044;2023-02-28T09:27:47;8.33;;;5.03;;
20705;SDS011;10514;49.468;11.044;2023-02-28T09:30:13;9.67;;;5.40;;
20705;SDS011;10514;49.468;11.044;2023-02-28T09:32:39;10.30;;;5.77;;
20705;SDS011;10514;49.468;11.044;2023-02-28T09:35:05;9.17;;;5.90;;
20705;SDS011;10514;49.468;11.044;2023-02-28T09:37:31;7.03;;;5.20;;
20705;SDS011;10514;49.468;11.044;2023-02-28T09:39:57;9.30;;;6.10;;
20705;SDS011;10514;49.468;11.044;2023-02-28T09:42:25;10.37;;;5.57;;
20705;SDS011;10514;49.468;11.044;2023-02-28T09:44:53;8.93;;;5.50;;
20705;SDS011;10514;49.468;11.044;2023-02-28T09:47:33;8.00;;;6.00;;
20705;SDS011;10514;49.468;11.044;2023-02-28T09:50:15;7.70;;;4.97;;
20705;SDS011;10514;49.468;11.044;2023-02-28T09:52:43;11.67;;;7.80;;
20705;SDS011;10514;49.468;11.044;2023-02-28T09:57:55;10.10;;;6.00;;
20705;SDS011;10514;49.468;11.044;2023-02-28T10:00:27;12.97;;;7.37;;
20705;SDS011;10514;49.468;11.044;2023-02-28T10:05:24;9.53;;;5.50;;
20705;SDS011;10514;49.468;11.044;2023-02-28T10:12:51;9.50;;;5.07;;
20705;SDS011;10514;49.468;11.044;2023-02-28T10:15:18;9.43;;;5.10;;
20705;SDS011;10514;49.468;11.044;2023-02-28T10:17:45;7.10;;;5.37;;
20705;SDS011;10514;49.468;11.044;2023-02-28T10:20:14;7.00;;;5.00;;
20705;SDS011;10514;49.468;11.044;2023-02-28T10:22:52;8.03;;;5.27;;
20705;SDS011;10514;49.468;11.044;2023-02-28T10:25:20;9.83;;;5.00;;
20705;SDS011;10514;49.468;11.044;2023-02-28T10:27:48;7.73;;;4.70;;
20705;SDS011;10514;49.468;11.044;2023-02-28T10:30:18;8.13;;;4.30;;
20705;SDS011;10514;49.468;11.044;2023-02-28T10:32:50;9.00;;;5.17;;
20705;SDS011;10514;49.468;11.044;2023-02-28T10:35:22;6.40;;;4.63;;
20705;SDS011;10514;49.468;11.044;2023-02-28T10:37:49;6.37;;;4.50;;
20705;SDS011;10514;49.468;11.044;2023-02-28T10:43:03;8.13;;;4.80;;
20705;SDS011;10514;49.468;11.044;2023-02-28T10:45:30;7.97;;;4.00;;
20705;SDS011;10514;49.468;11.044;2023-02-28T10:48:32;9.03;;;5.23;;
20705;SDS011;10514;49.468;11.044;2023-02-28T10:56:00;7.17;;;4.93;;
20705;SDS011;10514;49.468;11.044;2023-02-28T10:58:28;10.77;;;5.43;;
20705;SDS011;10514;49.468;11.044;2023-02-28T11:00:55;14.60;;;6.77;;
20705;SDS011;10514;49.468;11.044;2023-02-28T11:03:32;9.77;;;4.90;;
20705;SDS011;10514;49.468;11.044;2023-02-28T11:05:59;10.47;;;4.83;;
20705;SDS011;10514;49.468;11.044;2023-02-28T11:08:31;9.80;;;5.13;;
20705;SDS011;10514;49.468;11.044;2023-02-28T11:11:04;7.83;;;4.70;;
20705;SDS011;10514;49.468;11.044;2023-02-28T11:13:34;9.03;;;5.20;;
20705;SDS011;10514;49.468;11.044;2023-02-28T11:16:02;6.90;;;4.57;;
20705;SDS011;10514;49.468;11.044;2023-02-28T11:18:30;7.00;;;4.20;;
20705;SDS011;10514;49.468;11.044;2023-02-28T11:21:00;8.33;;;5.23;;
20705;SDS011;10514;49.468;11.044;2023-02-28T11:23:29;9.23;;;5.07;;
20705;SDS011;10514;49.468;11.044;2023-02-28T11:25:57;11.77;;;5.37;;
20705;SDS011;10514;49.468;11.044;2023-02-28T11:28:31;7.30;;;4.73;;
20705;SDS011;10514;49.468;11.044;2023-02-28T11:31:01;8.83;;;4.83;;
20705;SDS011;10514;49.468;11.044;2023-02-28T11:33:29;7.93;;;4.97;;
20705;SDS011;10514;49.468;11.044;2023-02-28T11:35:57;8.67;;;5.47;;
20705;SDS011;10514;49.468;11.044;2023-02-28T11:38:24;8.67;;;5.37;;
20705;SDS011;10514;49.468;11.044;2023-02-28T11:45:55;10.77;;;4.60;;
20705;SDS011;10514;49.468;11.044;2023-02-28T11:51:06;6.90;;;4.70;;
20705;SDS011;10514;49.468;11.044;2023-02-28T12:01:59;9.83;;;6.53;;
20705;SDS011;10514;49.468;11.044;2023-02-28T12:12:34;8.63;;;4.90;;
20705;SDS011;10514;49.468;11.044;2023-02-28T12:20:41;9.30;;;5.00;;
20705;SDS011;10514;49.468;11.044;2023-02-28T12:23:42;9.67;;;6.20;;
20705;SDS011;10514;49.468;11.044;2023-02-28T12:26:18;11.57;;;5.63;;
20705;SDS011;10514;49.468;11.044;2023-02-28T12:28:57;7.87;;;4.93;;
20705;SDS011;10514;49.468;11.044;2023-02-28T12:31:40;7.50;;;4.63;;
20705;SDS011;10514;49.468;11.044;2023-02-28T12:34:19;9.50;;;5.30;;
20705;SDS011;10514;49.468;11.044;2023-02-28T12:36:46;6.93;;;4.70;;
20705;SDS011;10514;49.468;11.044;2023-02-28T12:39:15;7.03;;;4.67;;
20705;SDS011;10514;49.468;11.044;2023-02-28T12:41:48;7.87;;;4.77;;
20705;SDS011;10514;49.468;11.044;2023-02-28T12:46:51;7.63;;;4.27;;
20705;SDS011;10514;49.468;11.044;2023-02-28T12:49:28;8.00;;;5.20;;
20705;SDS011;10514;49.468;11.044;2023-02-28T12:51:57;7.67;;;4.63;;
20705;SDS011;10514;49.468;11.044;2023-02-28T12:54:28;8.80;;;5.03;;
20705;SDS011;10514;49.468;11.044;2023-02-28T12:59:44;9.87;;;5.07;;
20705;SDS011;10514;49.468;11.044;2023-02-28T13:09:59;11.40;;;5.03;;
20705;SDS011;10514;49.468;11.044;2023-02-28T13:12:26;10.90;;;5.30;;
20705;SDS011;10514;49.468;11.044;2023-02-28T13:15:01;8.33;;;5.00;;
20705;SDS011;10514;49.468;11.044;2023-02-28T13:17:29;8.03;;;5.13;;
20705;SDS011;10514;49.468;11.044;2023-02-28T13:19:57;9.30;;;5.17;;
20705;SDS011;10514;49.468;11.044;2023-02-28T13:27:55;8.17;;;5.43;;
20705;SDS011;10514;49.468;11.044;2023-02-28T13:33:22;9.43;;;5.23;;
20705;SDS011;10514;49.468;11.044;2023-02-28T13:35:54;10.57;;;6.17;;
20705;SDS011;10514;49.468;11.044;2023-02-28T13:38:32;8.07;;;5.67;;
20705;SDS011;10514;49.468;11.044;2023-02-28T13:46:28;10.63;;;6.13;;
20705;SDS011;10514;49.468;11.044;2023-02-28T13:48:55;12.30;;;6.13;;
20705;SDS011;10514;49.468;11.044;2023-02-28T13:51:47;10.57;;;5.57;;
20705;SDS011;10514;49.468;11.044;2023-02-28T13:54:18;11.93;;;6.37;;
20705;SDS011;10514;49.468;11.044;2023-02-28T13:57:08;8.60;;;5.93;;
20705;SDS011;10514;49.468;11.044;2023-02-28T14:02:09;10.20;;;6.07;;
20705;SDS011;10514;49.468;11.044;2023-02-28T14:04:46;9.20;;;5.07;;
20705;SDS011;10514;49.468;11.044;2023-02-28T14:07:21;10.30;;;5.73;;
20705;SDS011;10514;49.468;11.044;2023-02-28T14:09:56;11.00;;;5.53;;
20705;SDS011;10514;49.468;11.044;2023-02-28T14:17:55;9.27;;;5.80;;
20705;SDS011;10514;49.468;11.044;2023-02-28T14:20:25;8.80;;;5.53;;
20705;SDS011;10514;49.468;11.044;2023-02-28T14:25:52;16.60;;;6.00;;
20705;SDS011;10514;49.468;11.044;2023-02-28T14:28:46;10.30;;;6.43;;
20705;SDS011;10514;49.468;11.044;2023-02-28T14:31:15;8.23;;;5.93;;
20705;SDS011;10514;49.468;11.044;2023-02-28T14:36:37;9.57;;;6.07;;
20705;SDS011;10514;49.468;11.044;2023-02-28T14:44:12;9.70;;;6.03;;
20705;SDS011;10514;49.468;11.044;2023-02-28T14:46:39;16.47;;;9.07;;
20705;SDS011;10514;49.468;11.044;2023-02-28T14:49:06;14.93;;;8.10;;
20705;SDS011;10514;49.468;11.044;2023-02-28T14:51:32;15.40;;;8.03;;
20705;SDS011;10514;49.468;11.044;2023-02-28T14:54:00;11.37;;;7.00;;
20705;SDS011;10514;49.468;11.044;2023-02-28T14:56:38;13.20;;;6.47;;
20705;SDS011;10514;49.468;11.044;2023-02-28T14:59:05;11.97;;;6.83;;
20705;SDS011;10514;49.468;11.044;2023-02-28T15:01:31;11.43;;;6.27;;
20705;SDS011;10514;49.468;11.044;2023-02-28T15:04:05;13.07;;;7.23;;
20705;SDS011;10514;49.468;11.044;2023-02-28T15:06:37;11.47;;;7.03;;
20705;SDS011;10514;49.468;11.044;2023-02-28T15:09:21;9.40;;;5.90;;
20705;SDS011;10514;49.468;11.044;2023-02-28T15:11:48;11.80;;;5.77;;
20705;SDS011;10514;49.468;11.044;2023-02-28T15:14:17;12.30;;;6.50;;
20705;SDS011;10514;49.468;11.044;2023-02-28T15:16:44;10.47;;;6.47;;
20705;SDS011;10514;49.468;11.044;2023-02-28T15:19:24;8.70;;;5.90;;
20705;SDS011;10514;49.468;11.044;2023-02-28T15:21:54;13.83;;;7.50;;
20705;SDS011;10514;49.468;11.044;2023-02-28T15:26:58;12.73;;;6.43;;
20705;SDS011;10514;49.468;11.044;2023-02-28T15:29:25;9.67;;;5.83;;
20705;SDS011;10514;49.468;11.044;2023-02-28T15:32:03;18.03;;;6.53;;
20705;SDS011;10514;49.468;11.044;2023-02-28T15:36:55;10.10;;;6.67;;
20705;SDS011;10514;49.468;11.044;2023-02-28T15:39:22;11.10;;;7.27;;
20705;SDS011;10514;49.468;11.044;2023-02-28T15:41:49;9.57;;;6.73;;
20705;SDS011;10514;49.468;11.044;2023-02-28T15:44:26;10.80;;;7.10;;
20705;SDS011;10514;49.468;11.044;2023-02-28T15:46:57;11.47;;;6.77;;
20705;SDS011;10514;49.468;11.044;2023-02-28T15:49:24;12.97;;;7.70;;
20705;SDS011;10514;49.468;11.044;2023-02-28T15:51:51;14.53;;;7.13;;
20705;SDS011;10514;49.468;11.044;2023-02-28T15:54:28;16.40;;;6.77;;
20705;SDS011;10514;49.468;11.044;2023-02-28T15:56:55;10.33;;;6.50;;
20705;SDS011;10514;49.468;11.044;2023-02-28T15:59:26;10.40;;;6.47;;
20705;SDS011;10514;49.468;11.044;2023-02-28T16:04:28;11.50;;;6.83;;
20705;SDS011;10514;49.468;11.044;2023-02-28T16:09:25;9.07;;;6.10;;
20705;SDS011;10514;49.468;11.044;2023-02-28T16:11:52;11.37;;;7.70;;
20705;SDS011;10514;49.468;11.044;2023-02-28T16:14:21;11.50;;;7.63;;
20705;SDS011;10514;49.468;11.044;2023-02-28T16:16:53;11.77;;;7.60;;
20705;SDS011;10514;49.468;11.044;2023-02-28T16:19:19;15.37;;;7.43;;
20705;SDS011;10514;49.468;11.044;2023-02-28T16:21:46;9.43;;;5.87;;
20705;SDS011;10514;49.468;11.044;2023-02-28T16:24:12;12.57;;;8.80;;
20705;SDS011;10514;49.468;11.044;2023-02-28T16:26:41;11.07;;;6.93;;
20705;SDS011;10514;49.468;11.044;2023-02-28T16:29:11;9.77;;;6.53;;
20705;SDS011;10514;49.468;11.044;2023-02-28T16:31:43;11.97;;;6.47;;
20705;SDS011;10514;49.468;11.044;2023-02-28T16:34:08;11.93;;;6.93;;
20705;SDS011;10514;49.468;11.044;2023-02-28T16:36:34;17.67;;;8.37;;
20705;SDS011;10514;49.468;11.044;2023-02-28T16:39:00;10.43;;;7.23;;
20705;SDS011;10514;49.468;11.044;2023-02-28T16:41:27;11.00;;;7.03;;
20705;SDS011;10514;49.468;11.044;2023-02-28T16:43:54;16.73;;;8.27;;
20705;SDS011;10514;49.468;11.044;2023-02-28T16:46:23;14.23;;;7.20;;